createdAt,value
2023-04-03T00:00:58.455Z,9.14
2023-04-03T00:03:25.515Z,9.06
2023-04-03T00:05:52.748Z,9.09
2023-04-03T00:08:19.942Z,9.12
2023-04-03T00:10:46.841Z,9.23
2023-04-03T00:13:13.990Z,9.23
2023-04-03T00:15:41.696Z,9.35
2023-04-03T00:18:08.916Z,9.22
2023-04-03T00:20:36.257Z,9.22
2023-04-03T00:23:03.618Z,9.26
2023-04-03T00:25:30.695Z,9.37
2023-04-03T00:27:57.649Z,9.48
2023-04-03T00:30:25.002Z,9.54
2023-04-03T00:32:52.983Z,9.49
2023-04-03T00:35:22.035Z,9.36
2023-04-03T00:37:51.947Z,9.36
2023-04-03T00:40:19.284Z,9.30
2023-04-03T00:42:49.150Z,9.33
2023-04-03T00:45:19.181Z,9.32
2023-04-03T00:47:46.578Z,9.17
2023-04-03T00:50:13.644Z,9.07
2023-04-03T00:52:41.108Z,9.09
2023-04-03T00:55:10.821Z,9.07
2023-04-03T00:57:38.723Z,9.05
2023-04-03T01:00:13.593Z,9.00
2023-04-03T01:02:42.179Z,8.92
2023-04-03T01:05:11.714Z,8.82
2023-04-03T01:07:39.668Z,8.90
2023-04-03T01:10:10.300Z,8.97
2023-04-03T01:12:46.897Z,8.98
2023-04-03T01:15:14.934Z,9.05
2023-04-03T01:17:51.846Z,8.82
2023-04-03T01:20:37.624Z,8.73
2023-04-03T01:23:13.267Z,8.70
2023-04-03T01:25:48.875Z,8.75
2023-04-03T01:28:22.204Z,8.68
2023-04-03T01:31:04.606Z,8.58
2023-04-03T01:33:34.273Z,8.60
2023-04-03T01:36:01.267Z,8.70
2023-04-03T01:38:29.352Z,8.69
2023-04-03T01:40:56.296Z,8.62
2023-04-03T01:43:23.784Z,8.52
2023-04-03T01:45:51.288Z,8.44
2023-04-03T01:48:18.196Z,8.55
2023-04-03T01:50:45.124Z,8.47
2023-04-03T01:53:12.128Z,8.36
2023-04-03T01:55:39.147Z,7.96
2023-04-03T01:58:06.229Z,7.98
2023-04-03T02:00:33.350Z,8.09
2023-04-03T02:03:00.564Z,8.03
2023-04-03T02:05:27.844Z,7.68
2023-04-03T02:07:54.971Z,7.75
2023-04-03T02:10:21.988Z,7.80
2023-04-03T02:12:49.045Z,7.85
2023-04-03T02:15:19.198Z,7.69
2023-04-03T02:17:46.354Z,7.73
2023-04-03T02:20:14.784Z,7.78
2023-04-03T02:22:42.058Z,7.82
2023-04-03T02:25:09.593Z,7.79
2023-04-03T02:27:36.733Z,7.77
2023-04-03T02:30:04.948Z,7.85
2023-04-03T02:32:32.710Z,7.84
2023-04-03T02:35:00.358Z,7.76
2023-04-03T02:37:28.015Z,7.86
2023-04-03T02:39:55.293Z,7.86
2023-04-03T02:42:22.745Z,7.85
2023-04-03T02:44:49.756Z,7.88
2023-04-03T02:47:17.342Z,7.93
2023-04-03T02:49:46.283Z,8.01
2023-04-03T02:52:16.544Z,8.05
2023-04-03T02:54:43.706Z,8.10
2023-04-03T02:57:11.773Z,8.20
2023-04-03T02:59:41.788Z,8.25
2023-04-03T03:02:11.199Z,8.26
2023-04-03T03:04:38.668Z,8.33
2023-04-03T03:07:05.786Z,8.34
2023-04-03T03:09:33.069Z,8.41
2023-04-03T03:12:00.040Z,8.51
2023-04-03T03:14:27.139Z,8.55
2023-04-03T03:16:54.338Z,8.68
2023-04-03T03:19:21.461Z,8.64
2023-04-03T03:21:48.950Z,8.61
2023-04-03T03:24:17.217Z,8.62
2023-04-03T03:26:44.618Z,8.70
2023-04-03T03:29:12.333Z,8.68
2023-04-03T03:31:39.552Z,8.66
2023-04-03T03:34:07.508Z,8.49
2023-04-03T03:36:34.555Z,8.42
2023-04-03T03:39:02.903Z,8.45
2023-04-03T03:41:30.039Z,8.33
2023-04-03T03:43:57.034Z,8.18
2023-04-03T03:46:24.643Z,8.14
2023-04-03T03:48:53.836Z,8.29
2023-04-03T03:51:20.868Z,8.17
2023-04-03T03:53:48.090Z,8.08
2023-04-03T03:56:18.570Z,7.91
2023-04-03T03:58:46.720Z,7.82
2023-04-03T04:01:14.567Z,7.87
2023-04-03T04:03:46.469Z,7.65
2023-04-03T04:06:18.403Z,7.66
2023-04-03T04:08:46.043Z,7.81
2023-04-03T04:11:14.849Z,7.79
2023-04-03T04:13:43.012Z,7.81
2023-04-03T04:16:12.441Z,7.97
2023-04-03T04:18:39.454Z,8.16
2023-04-03T04:21:06.590Z,8.38
2023-04-03T04:23:33.652Z,8.41
2023-04-03T04:26:01.758Z,8.53
2023-04-03T04:28:32.484Z,8.77
2023-04-03T04:31:01.152Z,8.86
2023-04-03T04:33:29.324Z,8.82
2023-04-03T04:35:58.788Z,9.09
2023-04-03T04:38:26.144Z,9.45
2023-04-03T04:40:54.375Z,9.79
2023-04-03T04:43:22.079Z,9.59
2023-04-03T04:46:04.097Z,9.80
2023-04-03T04:48:34.951Z,10.05
2023-04-03T04:51:03.146Z,10.54
2023-04-03T04:53:30.070Z,10.13
2023-04-03T04:55:57.348Z,10.39
2023-04-03T04:58:24.538Z,10.68
2023-04-03T05:01:02.716Z,10.88
2023-04-03T05:03:31.098Z,10.74
2023-04-03T05:05:58.106Z,10.90
2023-04-03T05:08:25.186Z,11.20
2023-04-03T05:10:54.230Z,11.43
2023-04-03T05:13:22.746Z,11.33
2023-04-03T05:15:49.912Z,11.44
2023-04-03T05:18:17.133Z,11.68
2023-04-03T05:20:44.653Z,12.08
2023-04-03T05:23:12.488Z,12.23
2023-04-03T05:25:40.552Z,12.50
2023-04-03T05:28:09.037Z,13.00
2023-04-03T05:30:36.147Z,13.62
2023-04-03T05:33:04.287Z,13.49
2023-04-03T05:35:42.555Z,13.27
2023-04-03T05:38:13.012Z,13.11
2023-04-03T05:40:40.229Z,13.21
2023-04-03T05:43:07.653Z,13.25
2023-04-03T05:45:37.968Z,13.51
2023-04-03T05:48:05.441Z,14.62
2023-04-03T05:50:34.011Z,16.03
2023-04-03T05:53:03.419Z,16.08
2023-04-03T05:55:32.667Z,16.13
2023-04-03T05:58:00.016Z,16.95
2023-04-03T06:00:26.955Z,17.66
2023-04-03T06:03:01.253Z,18.17
2023-04-03T06:05:33.142Z,17.83
2023-04-03T06:08:00.180Z,18.02
2023-04-03T06:10:27.280Z,18.61
2023-04-03T06:12:54.147Z,19.69
2023-04-03T06:15:22.240Z,20.49
2023-04-03T06:17:49.365Z,19.71
2023-04-03T06:20:16.774Z,18.66
2023-04-03T06:22:43.909Z,19.44
2023-04-03T06:25:12.299Z,20.83
2023-04-03T06:27:39.591Z,20.67
2023-04-03T06:30:08.298Z,22.63
2023-04-03T06:32:35.322Z,21.32
2023-04-03T06:35:02.217Z,22.23
2023-04-03T06:37:33.424Z,20.48
2023-04-03T06:40:01.538Z,22.03
2023-04-03T06:42:28.595Z,22.80
2023-04-03T06:45:01.860Z,23.13
2023-04-03T06:47:29.048Z,22.56
2023-04-03T06:49:56.073Z,25.47
2023-04-03T06:52:23.139Z,24.05
2023-04-03T06:54:50.396Z,25.22
2023-04-03T06:57:17.437Z,26.43
2023-04-03T06:59:44.696Z,22.69
2023-04-03T07:02:14.253Z,21.61
2023-04-03T07:04:41.497Z,21.92
2023-04-03T07:07:08.798Z,22.08
2023-04-03T07:09:35.939Z,20.36
2023-04-03T07:12:02.938Z,20.01
2023-04-03T07:14:29.767Z,19.70
2023-04-03T07:16:56.698Z,21.45
2023-04-03T07:19:25.601Z,22.63
2023-04-03T07:21:52.546Z,22.29
2023-04-03T07:24:19.814Z,21.44
2023-04-03T07:40:16.605Z,22.89
2023-04-03T07:42:43.991Z,23.03
2023-04-03T07:45:11.727Z,21.42
2023-04-03T07:47:38.885Z,20.98
2023-04-03T07:50:06.352Z,20.22
2023-04-03T07:52:33.272Z,19.81
2023-04-03T07:55:00.228Z,18.99
2023-04-03T07:57:27.203Z,18.81
2023-04-03T07:59:54.536Z,18.34
2023-04-03T08:02:21.558Z,18.85
2023-04-03T08:04:48.531Z,19.43
2023-04-03T08:07:15.632Z,20.89
2023-04-03T08:09:42.752Z,21.79
2023-04-03T08:12:12.532Z,21.56
2023-04-03T08:14:39.397Z,20.92
2023-04-03T08:17:06.616Z,20.57
2023-04-03T08:19:33.524Z,20.19
2023-04-03T08:22:01.921Z,19.75
2023-04-03T08:24:28.837Z,18.36
2023-04-03T08:26:59.115Z,19.47
2023-04-03T08:29:26.408Z,20.43
2023-04-03T08:31:53.407Z,19.93
2023-04-03T08:34:21.194Z,21.08
2023-04-03T08:36:48.326Z,21.71
2023-04-03T08:39:15.584Z,21.93
2023-04-03T08:41:50.339Z,22.31
2023-04-03T08:44:44.190Z,20.21
2023-04-03T08:47:33.833Z,20.12
2023-04-03T08:50:23.474Z,19.46
2023-04-03T08:52:54.903Z,18.49
2023-04-03T08:55:45.388Z,17.66
2023-04-03T08:58:22.380Z,17.71
2023-04-03T09:01:05.493Z,17.84
2023-04-03T09:03:36.700Z,19.17
2023-04-03T09:06:26.721Z,18.87
2023-04-03T09:09:15.607Z,19.19
2023-04-03T09:11:48.669Z,19.09
2023-04-03T09:14:24.966Z,18.61
2023-04-03T09:16:59.144Z,18.53
2023-04-03T09:19:43.193Z,18.79
2023-04-03T09:22:27.648Z,18.48
2023-04-03T09:25:10.190Z,18.55
2023-04-03T09:27:37.476Z,18.23
2023-04-03T09:30:05.289Z,18.58
2023-04-03T09:32:36.293Z,18.03
2023-04-03T09:35:20.603Z,17.77
2023-04-03T09:37:55.717Z,17.85
2023-04-03T09:40:40.223Z,17.99
2023-04-03T09:43:40.053Z,18.07
2023-04-03T09:46:33.069Z,18.63
2023-04-03T09:49:09.699Z,18.75
2023-04-03T09:51:37.665Z,17.76
2023-04-03T09:54:32.538Z,16.76
2023-04-03T09:57:07.605Z,15.89
2023-04-03T09:59:34.887Z,15.77
2023-04-03T10:02:15.478Z,15.49
2023-04-03T10:04:43.451Z,15.35
2023-04-03T10:07:36.305Z,15.26
2023-04-03T10:10:26.616Z,15.25
2023-04-03T10:13:21.465Z,15.11
2023-04-03T10:16:07.981Z,15.19
2023-04-03T10:18:38.691Z,15.39
2023-04-03T10:21:27.207Z,14.82
2023-04-03T10:24:30.542Z,15.67
2023-04-03T10:27:05.700Z,15.96
2023-04-03T10:29:32.661Z,16.20
2023-04-03T10:32:32.366Z,16.22
2023-04-03T10:35:38.111Z,16.29
2023-04-03T10:38:23.469Z,17.46
2023-04-03T10:41:04.893Z,18.30
2023-04-03T10:43:48.821Z,17.17
2023-04-03T10:46:41.869Z,16.97
2023-04-03T10:49:28.393Z,16.73
2023-04-03T10:52:06.154Z,16.99
2023-04-03T10:55:11.802Z,17.38
2023-04-03T10:57:39.604Z,18.31
2023-04-03T11:00:19.510Z,17.81
2023-04-03T11:02:51.247Z,17.31
2023-04-03T11:05:43.179Z,16.87
2023-04-03T11:08:18.776Z,18.40
2023-04-03T11:10:52.069Z,17.81
2023-04-03T11:13:26.317Z,18.10
2023-04-03T11:15:56.460Z,18.24
2023-04-03T11:18:45.992Z,18.06
2023-04-03T11:21:21.281Z,17.27
2023-04-03T11:23:50.243Z,16.81
2023-04-03T11:26:26.679Z,17.35
2023-04-03T11:28:58.679Z,16.74
2023-04-03T11:31:59.524Z,15.74
2023-04-03T11:34:54.638Z,15.13
2023-04-03T11:37:35.060Z,15.28
2023-04-03T11:40:10.463Z,15.15
2023-04-03T11:42:43.983Z,15.54
2023-04-03T11:45:23.065Z,15.40
2023-04-03T11:47:54.179Z,14.70
2023-04-03T11:50:45.103Z,14.67
2023-04-03T11:53:15.039Z,14.57
2023-04-03T11:55:51.121Z,14.99
2023-04-03T11:58:24.336Z,14.92
2023-04-03T12:00:56.259Z,14.78
2023-04-03T12:03:30.459Z,14.94
2023-04-03T12:06:14.696Z,14.67
2023-04-03T12:08:42.335Z,14.40
2023-04-03T12:11:12.236Z,14.15
2023-04-03T12:13:51.281Z,14.26
2023-04-03T12:16:39.184Z,14.37
2023-04-03T12:19:09.114Z,14.46
2023-04-03T12:21:48.093Z,14.03
2023-04-03T12:24:37.149Z,14.01
2023-04-03T12:27:15.171Z,13.79
2023-04-03T12:29:53.260Z,14.02
2023-04-03T12:32:39.041Z,13.80
2023-04-03T12:35:18.162Z,14.07
2023-04-03T12:38:03.990Z,13.90
2023-04-03T12:40:43.206Z,13.93
2023-04-03T12:43:28.357Z,13.58
2023-04-03T12:46:04.580Z,13.51
2023-04-03T12:49:01.480Z,13.35
2023-04-03T12:51:43.248Z,13.01
2023-04-03T12:54:28.620Z,13.17
2023-04-03T12:57:22.523Z,13.15
2023-04-03T12:59:49.976Z,12.96
2023-04-03T13:02:35.187Z,13.05
2023-04-03T13:05:11.109Z,13.10
2023-04-03T13:07:42.050Z,13.08
2023-04-03T13:10:09.185Z,12.95
2023-04-03T13:12:59.489Z,12.91
2023-04-03T13:15:30.566Z,12.90
2023-04-03T13:17:57.978Z,12.72
2023-04-03T13:20:28.821Z,12.87
2023-04-03T13:23:04.836Z,12.72
2023-04-03T13:25:35.424Z,12.59
2023-04-03T13:28:13.330Z,12.49
2023-04-03T13:30:54.845Z,12.10
2023-04-03T13:33:28.928Z,11.80
2023-04-03T13:36:07.978Z,11.98
2023-04-03T13:38:37.475Z,11.99
2023-04-03T13:41:26.965Z,11.94
2023-04-03T13:44:00.574Z,12.23
2023-04-03T13:46:33.914Z,12.13
2023-04-03T13:49:20.115Z,12.09
2023-04-03T13:51:56.967Z,11.88
2023-04-03T13:54:33.731Z,11.81
2023-04-03T13:57:02.437Z,11.77
2023-04-03T13:59:37.194Z,11.65
2023-04-03T14:02:04.067Z,11.40
2023-04-03T14:04:57.340Z,11.29
2023-04-03T14:07:25.083Z,11.05
2023-04-03T14:09:52.165Z,11.20
2023-04-03T14:12:40.284Z,11.17
2023-04-03T14:15:29.365Z,10.85
2023-04-03T14:17:56.787Z,10.92
2023-04-03T14:20:28.012Z,10.92
2023-04-03T14:22:55.806Z,10.81
2023-04-03T14:25:26.741Z,10.77
2023-04-03T14:27:54.909Z,10.70
2023-04-03T14:30:30.475Z,10.53
2023-04-03T14:32:58.022Z,10.55
2023-04-03T14:35:25.746Z,10.52
2023-04-03T14:37:54.840Z,10.49
2023-04-03T14:40:27.662Z,10.48
2023-04-03T14:42:56.406Z,10.49
2023-04-03T14:45:24.201Z,10.42
2023-04-03T14:47:55.933Z,10.40
2023-04-03T14:50:28.098Z,10.39
2023-04-03T14:52:59.695Z,10.43
2023-04-03T14:55:27.205Z,10.33
2023-04-03T14:57:55.278Z,10.30
2023-04-03T15:00:24.135Z,10.21
2023-04-03T15:02:52.277Z,10.19
2023-04-03T15:05:20.781Z,10.26
2023-04-03T15:07:58.565Z,10.37
2023-04-03T15:10:29.428Z,10.53
2023-04-03T15:12:57.027Z,10.60
2023-04-03T15:15:25.168Z,10.68
2023-04-03T15:17:55.411Z,10.77
2023-04-03T15:20:25.950Z,10.82
2023-04-03T15:22:53.753Z,10.83
2023-04-03T15:25:20.819Z,10.76
2023-04-03T15:27:49.249Z,10.75
2023-04-03T15:30:19.540Z,10.75
2023-04-03T15:32:47.729Z,10.69
2023-04-03T15:35:15.626Z,10.60
2023-04-03T15:37:43.060Z,10.65
2023-04-03T15:40:10.696Z,10.59
2023-04-03T15:42:37.917Z,10.61
2023-04-03T15:45:05.180Z,10.62
2023-04-03T15:47:32.292Z,10.67
2023-04-03T15:49:59.985Z,10.70
2023-04-03T15:52:27.032Z,10.58
2023-04-03T15:54:53.978Z,10.66
2023-04-03T15:57:21.066Z,10.73
2023-04-03T15:59:48.116Z,10.67
2023-04-03T16:02:15.401Z,10.47
2023-04-03T16:04:42.480Z,10.46
2023-04-03T16:07:09.514Z,10.26
2023-04-03T16:09:37.183Z,10.27
2023-04-03T16:12:04.682Z,10.37
2023-04-03T16:14:31.800Z,10.05
2023-04-03T16:17:00.934Z,10.32
2023-04-03T16:19:28.137Z,10.37
2023-04-03T16:21:56.473Z,10.34
2023-04-03T16:24:23.686Z,10.45
2023-04-03T16:26:50.665Z,10.40
2023-04-03T16:29:17.784Z,10.29
2023-04-03T16:31:44.993Z,10.30
2023-04-03T16:34:12.818Z,10.31
2023-04-03T16:36:39.877Z,10.35
2023-04-03T16:39:10.774Z,10.33
2023-04-03T16:41:38.033Z,10.33
2023-04-03T16:44:05.100Z,10.38
2023-04-03T16:46:32.151Z,10.48
2023-04-03T16:48:59.192Z,10.56
2023-04-03T16:51:26.540Z,10.66
2023-04-03T16:53:53.739Z,10.70
2023-04-03T16:56:21.361Z,10.71
2023-04-03T16:58:49.799Z,10.63
2023-04-03T17:01:19.226Z,10.74
2023-04-03T17:03:46.539Z,10.76
2023-04-03T17:06:18.907Z,10.58
2023-04-03T17:08:48.568Z,10.69
2023-04-03T17:11:30.301Z,10.52
2023-04-03T17:13:57.450Z,10.40
2023-04-03T17:16:25.734Z,10.34
2023-04-03T17:18:54.223Z,10.44
2023-04-03T17:21:21.978Z,10.28
2023-04-03T17:23:55.533Z,10.28
2023-04-03T17:26:22.474Z,10.35
2023-04-03T17:28:49.496Z,10.21
2023-04-03T17:31:16.875Z,10.15
2023-04-03T17:33:44.011Z,10.20
2023-04-03T17:36:11.316Z,10.10
2023-04-03T17:38:38.311Z,9.85
2023-04-03T17:41:08.337Z,10.00
2023-04-03T17:43:36.277Z,9.97
2023-04-03T17:46:05.793Z,9.91
2023-04-03T17:48:34.443Z,9.97
2023-04-03T17:51:09.222Z,9.84
2023-04-03T17:53:36.318Z,9.80
2023-04-03T17:56:08.567Z,9.84
2023-04-03T17:58:36.223Z,9.81
2023-04-03T18:01:20.228Z,9.78
2023-04-03T18:03:48.855Z,9.89
2023-04-03T18:06:18.902Z,9.82
2023-04-03T18:08:51.922Z,9.66
2023-04-03T18:11:20.232Z,9.85
2023-04-03T18:13:47.334Z,9.81
2023-04-03T18:16:15.185Z,9.56
2023-04-03T18:18:42.163Z,9.65
2023-04-03T18:21:10.966Z,9.46
2023-04-03T18:23:41.739Z,9.17
2023-04-03T18:26:11.171Z,9.25
2023-04-03T18:28:40.189Z,9.21
2023-04-03T18:31:11.016Z,9.06
2023-04-03T18:33:38.183Z,9.19
2023-04-03T18:36:05.703Z,9.10
2023-04-03T18:38:32.700Z,8.85
2023-04-03T18:41:04.861Z,9.04
2023-04-03T18:43:32.183Z,9.05
2023-04-03T18:45:59.132Z,8.92
2023-04-03T18:48:26.126Z,9.12
2023-04-03T18:50:53.023Z,9.10
2023-04-03T18:53:19.952Z,9.00
2023-04-03T18:55:46.915Z,9.32
2023-04-03T18:58:13.886Z,9.35
2023-04-03T19:00:41.928Z,9.30
2023-04-03T19:03:10.936Z,9.49
2023-04-03T19:05:37.822Z,9.59
2023-04-03T19:08:05.192Z,9.55
2023-04-03T19:10:32.149Z,9.48
2023-04-03T19:12:59.304Z,9.64
2023-04-03T19:15:27.047Z,9.56
2023-04-03T19:17:54.118Z,9.49
2023-04-03T19:20:21.497Z,9.57
2023-04-03T19:22:48.567Z,9.47
2023-04-03T19:25:15.642Z,9.48
2023-04-03T19:27:42.712Z,9.62
2023-04-03T19:41:56.113Z,9.14
2023-04-03T19:44:23.086Z,9.16
2023-04-03T19:46:50.806Z,9.12
2023-04-03T19:49:19.605Z,8.97
2023-04-03T19:51:46.565Z,9.14
2023-04-03T19:54:13.781Z,9.07
2023-04-03T19:56:40.944Z,8.95
2023-04-03T19:59:07.914Z,9.15
2023-04-03T20:01:35.448Z,9.11
2023-04-03T20:04:02.989Z,9.14
2023-04-03T20:06:29.894Z,9.32
2023-04-03T20:08:57.047Z,9.30
2023-04-03T20:11:25.281Z,9.19
2023-04-03T20:13:54.223Z,9.05
2023-04-03T20:16:26.230Z,9.15
2023-04-03T20:18:57.242Z,9.14
2023-04-03T20:21:32.326Z,9.01
2023-04-03T20:24:00.785Z,9.05
2023-04-03T20:26:29.897Z,9.10
2023-04-03T20:28:58.902Z,9.04
2023-04-03T20:31:28.252Z,8.97
2023-04-03T20:33:55.287Z,9.00
2023-04-03T20:36:23.606Z,8.95
2023-04-03T20:38:52.387Z,8.84
2023-04-03T20:41:19.560Z,8.98
2023-04-03T20:43:47.965Z,8.93
2023-04-03T20:46:19.515Z,8.81
2023-04-03T20:48:48.223Z,8.81
2023-04-03T20:51:19.180Z,8.88
2023-04-03T20:53:47.597Z,8.82
2023-04-03T20:56:16.029Z,8.75
2023-04-03T20:58:46.418Z,8.88
2023-04-03T21:01:20.008Z,8.85
2023-04-03T21:03:48.967Z,8.77
2023-04-03T21:06:53.105Z,8.73
2023-04-03T21:09:57.150Z,8.78
2023-04-03T21:13:01.803Z,8.73
2023-04-03T21:15:47.572Z,9.01
2023-04-03T21:18:32.559Z,8.79
2023-04-03T21:21:01.437Z,8.71
2023-04-03T21:23:29.539Z,8.76
2023-04-03T21:25:57.828Z,8.79
2023-04-03T21:28:25.174Z,8.71
2023-04-03T21:30:52.400Z,8.60
2023-04-03T21:33:19.373Z,8.66
2023-04-03T21:35:46.465Z,8.69
2023-04-03T21:38:15.984Z,8.64
2023-04-03T21:40:46.789Z,8.59
2023-04-03T21:43:13.908Z,8.69
2023-04-03T21:45:40.985Z,8.55
2023-04-03T21:48:10.320Z,8.40
2023-04-03T21:50:37.456Z,8.60
2023-04-03T21:53:04.585Z,8.56
2023-04-03T21:55:31.613Z,8.46
2023-04-03T21:57:58.690Z,8.49
2023-04-03T22:00:25.759Z,8.56
2023-04-03T22:02:57.818Z,8.51
2023-04-03T22:05:36.148Z,8.45
2023-04-03T22:08:04.293Z,8.50
2023-04-03T22:10:31.817Z,8.48
2023-04-03T22:12:58.785Z,8.40
2023-04-03T22:15:26.248Z,8.45
2023-04-03T22:17:53.297Z,8.44
2023-04-03T22:20:20.832Z,8.36
2023-04-03T22:22:50.880Z,8.40
2023-04-03T22:25:17.835Z,8.49
2023-04-03T22:27:44.903Z,8.43
2023-04-03T22:30:12.397Z,8.32
2023-04-03T22:32:39.452Z,8.54
2023-04-03T22:35:07.120Z,8.46
2023-04-03T22:37:34.269Z,8.42
2023-04-03T22:40:01.726Z,8.47
2023-04-03T22:42:28.678Z,8.50
2023-04-03T22:44:55.710Z,8.43
2023-04-03T22:47:22.649Z,8.40
2023-04-03T22:49:49.598Z,8.45
2023-04-03T22:52:19.030Z,8.49
2023-04-03T22:54:46.154Z,8.47
2023-04-03T22:57:13.078Z,8.46
2023-04-03T22:59:39.947Z,8.53
2023-04-03T23:02:06.929Z,8.49
2023-04-03T23:04:34.054Z,8.42
2023-04-03T23:07:01.141Z,8.49
2023-04-03T23:09:28.604Z,8.45
2023-04-03T23:11:55.618Z,8.37
2023-04-03T23:14:22.913Z,8.44
2023-04-03T23:16:50.085Z,8.44
2023-04-03T23:19:17.981Z,8.40
2023-04-03T23:21:45.862Z,8.22
2023-04-03T23:24:13.069Z,8.41
2023-04-03T23:26:40.123Z,8.38
2023-04-03T23:29:07.933Z,8.29
2023-04-03T23:31:34.991Z,8.35
2023-04-03T23:34:01.989Z,8.40
2023-04-03T23:36:28.949Z,8.29
2023-04-03T23:38:59.151Z,8.19
2023-04-03T23:41:27.029Z,8.36
2023-04-03T23:43:54.113Z,8.36
2023-04-03T23:46:21.083Z,8.27
2023-04-03T23:48:48.172Z,8.38
2023-04-03T23:51:15.306Z,8.43
2023-04-03T23:53:42.244Z,8.36
2023-04-03T23:56:12.667Z,8.32
2023-04-03T23:58:39.685Z,8.45
